sensor_id;sensor_type;location;lat;lon;timestamp;temperature;humidity
14317;DHT22;7242;50.858;6.586;2023-09-19T00:01:09;17.10;99.90
14317;DHT22;7242;50.858;6.586;2023-09-19T00:04:09;16.90;99.90
14317;DHT22;7242;50.858;6.586;2023-09-19T00:07:10;17.10;99.90
14317;DHT22;7242;50.858;6.586;2023-09-19T00:10:11;17.00;99.90
14317;DHT22;7242;50.858;6.586;2023-09-19T00:13:12;16.80;99.90
14317;DHT22;7242;50.858;6.586;2023-09-19T00:16:15;16.80;99.90
14317;DHT22;7242;50.858;6.586;2023-09-19T00:19:16;16.80;99.90
14317;DHT22;7242;50.858;6.586;2023-09-19T00:22:16;17.00;99.90
14317;DHT22;7242;50.858;6.586;2023-09-19T00:25:20;16.90;99.90
14317;DHT22;7242;50.858;6.586;2023-09-19T00:28:21;17.00;99.90
14317;DHT22;7242;50.858;6.586;2023-09-19T00:31:22;16.90;99.90
14317;DHT22;7242;50.858;6.586;2023-09-19T00:34:25;16.80;99.90
14317;DHT22;7242;50.858;6.586;2023-09-19T00:37:26;16.80;99.90
14317;DHT22;7242;50.858;6.586;2023-09-19T00:40:27;16.90;99.90
14317;DHT22;7242;50.858;6.586;2023-09-19T00:43:27;17.10;99.90
14317;DHT22;7242;50.858;6.586;2023-09-19T00:46:31;16.80;99.90
14317;DHT22;7242;50.858;6.586;2023-09-19T00:49:32;17.00;99.90
14317;DHT22;7242;50.858;6.586;2023-09-19T00:52:34;17.20;99.90
14317;DHT22;7242;50.858;6.586;2023-09-19T00:55:39;16.90;99.90
14317;DHT22;7242;50.858;6.586;2023-09-19T00:58:40;16.80;99.90
14317;DHT22;7242;50.858;6.586;2023-09-19T01:01:41;16.80;99.90
14317;DHT22;7242;50.858;6.586;2023-09-19T01:04:43;17.00;99.90
14317;DHT22;7242;50.858;6.586;2023-09-19T01:07:45;16.90;99.90
14317;DHT22;7242;50.858;6.586;2023-09-19T01:10:56;17.30;99.90
14317;DHT22;7242;50.858;6.586;2023-09-19T01:17:53;17.00;99.90
14317;DHT22;7242;50.858;6.586;2023-09-19T01:24:51;17.00;99.90
14317;DHT22;7242;50.858;6.586;2023-09-19T01:28:15;17.10;99.90
14317;DHT22;7242;50.858;6.586;2023-09-19T01:31:18;16.90;99.90
14317;DHT22;7242;50.858;6.586;2023-09-19T01:34:20;16.90;99.90
14317;DHT22;7242;50.858;6.586;2023-09-19T01:37:21;16.80;99.90
14317;DHT22;7242;50.858;6.586;2023-09-19T01:40:26;16.80;99.90
14317;DHT22;7242;50.858;6.586;2023-09-19T01:43:33;16.70;99.90
14317;DHT22;7242;50.858;6.586;2023-09-19T01:46:40;16.60;99.90
14317;DHT22;7242;50.858;6.586;2023-09-19T01:49:48;16.70;99.90
14317;DHT22;7242;50.858;6.586;2023-09-19T01:53:05;16.70;99.90
14317;DHT22;7242;50.858;6.586;2023-09-19T01:56:20;16.40;99.90
14317;DHT22;7242;50.858;6.586;2023-09-19T01:59:25;16.40;99.90
14317;DHT22;7242;50.858;6.586;2023-09-19T02:02:29;16.30;99.90
14317;DHT22;7242;50.858;6.586;2023-09-19T02:05:30;16.50;99.90
14317;DHT22;7242;50.858;6.586;2023-09-19T02:08:31;16.50;99.90
14317;DHT22;7242;50.858;6.586;2023-09-19T02:11:34;16.10;99.90
14317;DHT22;7242;50.858;6.586;2023-09-19T02:14:35;16.00;99.90
14317;DHT22;7242;50.858;6.586;2023-09-19T02:17:37;16.00;99.90
14317;DHT22;7242;50.858;6.586;2023-09-19T02:20:39;16.00;99.90
14317;DHT22;7242;50.858;6.586;2023-09-19T02:23:40;15.90;99.90
14317;DHT22;7242;50.858;6.586;2023-09-19T02:26:41;16.00;99.90
14317;DHT22;7242;50.858;6.586;2023-09-19T02:29:43;16.00;99.90
14317;DHT22;7242;50.858;6.586;2023-09-19T02:32:43;16.00;99.90
14317;DHT22;7242;50.858;6.586;2023-09-19T02:35:45;15.80;99.90
14317;DHT22;7242;50.858;6.586;2023-09-19T02:38:46;15.90;99.90
14317;DHT22;7242;50.858;6.586;2023-09-19T02:41:47;15.90;99.90
14317;DHT22;7242;50.858;6.586;2023-09-19T02:44:48;15.90;99.90
14317;DHT22;7242;50.858;6.586;2023-09-19T02:47:49;15.90;99.90
14317;DHT22;7242;50.858;6.586;2023-09-19T02:50:51;15.80;99.90
14317;DHT22;7242;50.858;6.586;2023-09-19T02:53:52;15.90;99.90
14317;DHT22;7242;50.858;6.586;2023-09-19T02:56:53;15.80;99.90
14317;DHT22;7242;50.858;6.586;2023-09-19T02:59:54;15.70;99.90
14317;DHT22;7242;50.858;6.586;2023-09-19T03:02:56;15.70;99.90
14317;DHT22;7242;50.858;6.586;2023-09-19T03:05:56;16.00;99.90
14317;DHT22;7242;50.858;6.586;2023-09-19T03:08:59;15.70;99.90
14317;DHT22;7242;50.858;6.586;2023-09-19T03:12:01;15.60;99.90
14317;DHT22;7242;50.858;6.586;2023-09-19T03:15:02;15.60;99.90
14317;DHT22;7242;50.858;6.586;2023-09-19T03:18:05;15.60;99.90
14317;DHT22;7242;50.858;6.586;2023-09-19T03:21:08;15.60;99.90
14317;DHT22;7242;50.858;6.586;2023-09-19T03:24:08;15.50;99.90
14317;DHT22;7242;50.858;6.586;2023-09-19T03:27:10;15.60;99.90
14317;DHT22;7242;50.858;6.586;2023-09-19T03:30:12;15.60;99.90
14317;DHT22;7242;50.858;6.586;2023-09-19T03:33:15;15.60;99.90
14317;DHT22;7242;50.858;6.586;2023-09-19T03:36:17;15.50;99.90
14317;DHT22;7242;50.858;6.586;2023-09-19T03:39:18;15.50;99.90
14317;DHT22;7242;50.858;6.586;2023-09-19T03:42:19;15.60;99.90
14317;DHT22;7242;50.858;6.586;2023-09-19T03:45:26;15.50;99.90
14317;DHT22;7242;50.858;6.586;2023-09-19T03:48:28;15.90;99.90
14317;DHT22;7242;50.858;6.586;2023-09-19T03:51:29;15.70;99.90
14317;DHT22;7242;50.858;6.586;2023-09-19T03:54:30;15.60;99.90
14317;DHT22;7242;50.858;6.586;2023-09-19T03:57:31;15.50;99.90
14317;DHT22;7242;50.858;6.586;2023-09-19T04:00:32;15.80;99.90
14317;DHT22;7242;50.858;6.586;2023-09-19T04:03:34;15.70;99.90
14317;DHT22;7242;50.858;6.586;2023-09-19T04:06:47;15.70;99.90
14317;DHT22;7242;50.858;6.586;2023-09-19T04:09:48;15.60;99.90
14317;DHT22;7242;50.858;6.586;2023-09-19T04:12:53;15.60;99.90
14317;DHT22;7242;50.858;6.586;2023-09-19T04:15:54;15.60;99.90
14317;DHT22;7242;50.858;6.586;2023-09-19T04:18:55;15.60;99.90
14317;DHT22;7242;50.858;6.586;2023-09-19T04:21:56;15.60;99.90
14317;DHT22;7242;50.858;6.586;2023-09-19T04:24:56;15.60;99.90
14317;DHT22;7242;50.858;6.586;2023-09-19T04:27:57;15.80;99.90
14317;DHT22;7242;50.858;6.586;2023-09-19T04:30:58;15.50;99.90
14317;DHT22;7242;50.858;6.586;2023-09-19T04:33:59;15.50;99.90
14317;DHT22;7242;50.858;6.586;2023-09-19T04:37:05;15.60;99.90
14317;DHT22;7242;50.858;6.586;2023-09-19T04:40:08;15.50;99.90
14317;DHT22;7242;50.858;6.586;2023-09-19T04:43:14;15.60;99.90
14317;DHT22;7242;50.858;6.586;2023-09-19T04:46:16;15.50;99.90
14317;DHT22;7242;50.858;6.586;2023-09-19T04:49:18;15.50;99.90
14317;DHT22;7242;50.858;6.586;2023-09-19T04:52:19;15.50;99.90
14317;DHT22;7242;50.858;6.586;2023-09-19T04:55:20;15.60;99.90
14317;DHT22;7242;50.858;6.586;2023-09-19T04:58:22;15.70;99.90
14317;DHT22;7242;50.858;6.586;2023-09-19T05:01:23;15.60;99.90
14317;DHT22;7242;50.858;6.586;2023-09-19T05:04:23;15.50;99.90
14317;DHT22;7242;50.858;6.586;2023-09-19T05:07:24;15.50;99.90
14317;DHT22;7242;50.858;6.586;2023-09-19T05:10:26;15.50;99.90
14317;DHT22;7242;50.858;6.586;2023-09-19T05:13:27;15.50;99.90
14317;DHT22;7242;50.858;6.586;2023-09-19T05:16:29;15.50;99.90
14317;DHT22;7242;50.858;6.586;2023-09-19T05:19:30;15.50;99.90
14317;DHT22;7242;50.858;6.586;2023-09-19T05:22:30;15.50;99.90
14317;DHT22;7242;50.858;6.586;2023-09-19T05:25:33;15.60;99.90
14317;DHT22;7242;50.858;6.586;2023-09-19T05:28:37;15.50;99.90
14317;DHT22;7242;50.858;6.586;2023-09-19T05:31:38;15.40;99.90
14317;DHT22;7242;50.858;6.586;2023-09-19T05:34:41;15.40;99.90
14317;DHT22;7242;50.858;6.586;2023-09-19T05:37:42;15.70;99.90
14317;DHT22;7242;50.858;6.586;2023-09-19T05:40:42;15.70;99.90
14317;DHT22;7242;50.858;6.586;2023-09-19T05:43:43;15.50;99.90
14317;DHT22;7242;50.858;6.586;2023-09-19T05:46:44;15.50;99.90
14317;DHT22;7242;50.858;6.586;2023-09-19T05:49:46;15.60;99.90
14317;DHT22;7242;50.858;6.586;2023-09-19T05:52:54;15.50;99.90
14317;DHT22;7242;50.858;6.586;2023-09-19T05:55:56;15.60;99.90
14317;DHT22;7242;50.858;6.586;2023-09-19T05:58:57;15.60;99.90
14317;DHT22;7242;50.858;6.586;2023-09-19T06:01:57;15.70;99.90
14317;DHT22;7242;50.858;6.586;2023-09-19T06:04:58;15.60;99.90
14317;DHT22;7242;50.858;6.586;2023-09-19T06:07:59;15.70;99.90
14317;DHT22;7242;50.858;6.586;2023-09-19T06:11:00;15.80;99.90
14317;DHT22;7242;50.858;6.586;2023-09-19T06:14:02;15.70;99.90
14317;DHT22;7242;50.858;6.586;2023-09-19T06:17:03;15.80;99.90
14317;DHT22;7242;50.858;6.586;2023-09-19T06:20:07;15.70;99.90
14317;DHT22;7242;50.858;6.586;2023-09-19T06:23:14;15.70;99.90
14317;DHT22;7242;50.858;6.586;2023-09-19T06:26:15;14.60;99.90
14317;DHT22;7242;50.858;6.586;2023-09-19T06:29:16;16.00;99.90
14317;DHT22;7242;50.858;6.586;2023-09-19T06:32:16;15.80;99.90
14317;DHT22;7242;50.858;6.586;2023-09-19T06:35:17;16.00;99.90
14317;DHT22;7242;50.858;6.586;2023-09-19T06:38:18;16.10;99.90
14317;DHT22;7242;50.858;6.586;2023-09-19T06:41:19;16.20;99.90
14317;DHT22;7242;50.858;6.586;2023-09-19T06:44:21;16.10;99.90
14317;DHT22;7242;50.858;6.586;2023-09-19T06:47:25;16.70;99.90
14317;DHT22;7242;50.858;6.586;2023-09-19T06:50:26;16.90;99.90
14317;DHT22;7242;50.858;6.586;2023-09-19T06:53:27;16.70;99.90
14317;DHT22;7242;50.858;6.586;2023-09-19T06:56:28;17.20;99.90
14317;DHT22;7242;50.858;6.586;2023-09-19T06:59:28;17.30;99.90
14317;DHT22;7242;50.858;6.586;2023-09-19T07:02:29;17.50;99.90
14317;DHT22;7242;50.858;6.586;2023-09-19T07:05:31;17.50;99.90
14317;DHT22;7242;50.858;6.586;2023-09-19T07:08:31;17.70;99.90
14317;DHT22;7242;50.858;6.586;2023-09-19T07:11:32;17.90;99.90
14317;DHT22;7242;50.858;6.586;2023-09-19T07:14:34;17.90;99.90
14317;DHT22;7242;50.858;6.586;2023-09-19T07:17:35;17.90;99.90
14317;DHT22;7242;50.858;6.586;2023-09-19T07:20:35;18.10;99.90
14317;DHT22;7242;50.858;6.586;2023-09-19T07:23:36;18.30;99.90
14317;DHT22;7242;50.858;6.586;2023-09-19T07:26:38;18.60;99.90
14317;DHT22;7242;50.858;6.586;2023-09-19T07:29:40;18.80;99.90
14317;DHT22;7242;50.858;6.586;2023-09-19T07:32:41;19.00;99.90
14317;DHT22;7242;50.858;6.586;2023-09-19T07:35:45;19.20;99.90
14317;DHT22;7242;50.858;6.586;2023-09-19T07:38:46;19.40;99.90
14317;DHT22;7242;50.858;6.586;2023-09-19T07:41:47;19.80;99.90
14317;DHT22;7242;50.858;6.586;2023-09-19T07:44:49;20.40;99.90
14317;DHT22;7242;50.858;6.586;2023-09-19T07:47:51;21.20;99.90
14317;DHT22;7242;50.858;6.586;2023-09-19T07:50:51;21.70;99.90
14317;DHT22;7242;50.858;6.586;2023-09-19T07:53:52;21.90;99.90
14317;DHT22;7242;50.858;6.586;2023-09-19T07:56:53;21.90;99.90
14317;DHT22;7242;50.858;6.586;2023-09-19T07:59:54;21.90;99.90
14317;DHT22;7242;50.858;6.586;2023-09-19T08:02:55;21.80;99.90
14317;DHT22;7242;50.858;6.586;2023-09-19T08:05:59;21.30;99.90
14317;DHT22;7242;50.858;6.586;2023-09-19T08:08:59;21.30;99.90
14317;DHT22;7242;50.858;6.586;2023-09-19T08:12:01;21.10;99.90
14317;DHT22;7242;50.858;6.586;2023-09-19T08:15:05;21.00;99.90
14317;DHT22;7242;50.858;6.586;2023-09-19T08:18:06;20.80;99.90
14317;DHT22;7242;50.858;6.586;2023-09-19T08:21:08;20.80;99.90
14317;DHT22;7242;50.858;6.586;2023-09-19T08:24:11;20.50;99.90
14317;DHT22;7242;50.858;6.586;2023-09-19T08:27:12;20.40;99.90
14317;DHT22;7242;50.858;6.586;2023-09-19T08:30:13;20.40;99.90
14317;DHT22;7242;50.858;6.586;2023-09-19T08:33:15;19.40;99.90
14317;DHT22;7242;50.858;6.586;2023-09-19T08:36:15;20.20;99.90
14317;DHT22;7242;50.858;6.586;2023-09-19T08:39:16;19.90;99.90
14317;DHT22;7242;50.858;6.586;2023-09-19T08:42:18;19.70;99.90
14317;DHT22;7242;50.858;6.586;2023-09-19T08:45:24;19.80;99.90
14317;DHT22;7242;50.858;6.586;2023-09-19T08:48:28;19.90;99.90
14317;DHT22;7242;50.858;6.586;2023-09-19T08:51:43;20.10;99.90
14317;DHT22;7242;50.858;6.586;2023-09-19T08:54:48;20.20;99.90
14317;DHT22;7242;50.858;6.586;2023-09-19T08:57:52;20.30;99.90
14317;DHT22;7242;50.858;6.586;2023-09-19T09:00:59;20.40;99.90
14317;DHT22;7242;50.858;6.586;2023-09-19T09:04:02;20.50;99.90
14317;DHT22;7242;50.858;6.586;2023-09-19T09:07:03;20.50;99.90
14317;DHT22;7242;50.858;6.586;2023-09-19T09:10:04;20.50;99.90
14317;DHT22;7242;50.858;6.586;2023-09-19T09:13:05;20.50;99.90
14317;DHT22;7242;50.858;6.586;2023-09-19T09:16:07;20.50;99.90
14317;DHT22;7242;50.858;6.586;2023-09-19T09:19:10;20.40;99.90
14317;DHT22;7242;50.858;6.586;2023-09-19T09:22:11;20.50;99.90
14317;DHT22;7242;50.858;6.586;2023-09-19T09:25:12;20.50;99.90
14317;DHT22;7242;50.858;6.586;2023-09-19T09:28:19;20.50;99.90
14317;DHT22;7242;50.858;6.586;2023-09-19T09:31:24;20.50;99.90
14317;DHT22;7242;50.858;6.586;2023-09-19T09:34:33;20.50;99.90
14317;DHT22;7242;50.858;6.586;2023-09-19T09:37:34;20.60;99.90
14317;DHT22;7242;50.858;6.586;2023-09-19T09:40:51;20.70;99.90
14317;DHT22;7242;50.858;6.586;2023-09-19T09:43:54;20.80;99.90
14317;DHT22;7242;50.858;6.586;2023-09-19T09:46:55;20.70;99.90
14317;DHT22;7242;50.858;6.586;2023-09-19T09:49:59;20.80;99.90
14317;DHT22;7242;50.858;6.586;2023-09-19T09:53:39;20.80;99.90
14317;DHT22;7242;50.858;6.586;2023-09-19T09:56:59;20.80;99.90
14317;DHT22;7242;50.858;6.586;2023-09-19T10:00:13;20.80;99.90
14317;DHT22;7242;50.858;6.586;2023-09-19T10:03:20;20.90;99.90
14317;DHT22;7242;50.858;6.586;2023-09-19T10:06:24;21.00;99.90
14317;DHT22;7242;50.858;6.586;2023-09-19T10:09:28;21.00;99.90
14317;DHT22;7242;50.858;6.586;2023-09-19T10:12:32;20.90;99.90
14317;DHT22;7242;50.858;6.586;2023-09-19T10:15:36;20.90;99.90
14317;DHT22;7242;50.858;6.586;2023-09-19T10:18:38;20.80;99.90
14317;DHT22;7242;50.858;6.586;2023-09-19T10:21:40;20.90;99.90
14317;DHT22;7242;50.858;6.586;2023-09-19T10:24:41;21.00;99.90
14317;DHT22;7242;50.858;6.586;2023-09-19T10:27:43;21.00;99.90
14317;DHT22;7242;50.858;6.586;2023-09-19T10:30:45;21.00;99.90
14317;DHT22;7242;50.858;6.586;2023-09-19T10:33:48;21.10;99.90
14317;DHT22;7242;50.858;6.586;2023-09-19T10:36:51;21.20;99.90
14317;DHT22;7242;50.858;6.586;2023-09-19T10:39:53;21.90;99.90
14317;DHT22;7242;50.858;6.586;2023-09-19T10:43:04;21.40;99.90
14317;DHT22;7242;50.858;6.586;2023-09-19T10:46:08;21.40;99.90
14317;DHT22;7242;50.858;6.586;2023-09-19T10:49:12;21.50;99.90
14317;DHT22;7242;50.858;6.586;2023-09-19T10:52:20;21.50;99.90
14317;DHT22;7242;50.858;6.586;2023-09-19T10:55:21;21.60;99.90
14317;DHT22;7242;50.858;6.586;2023-09-19T10:58:31;21.70;99.90
14317;DHT22;7242;50.858;6.586;2023-09-19T11:01:48;21.80;99.90
14317;DHT22;7242;50.858;6.586;2023-09-19T11:04:51;21.70;99.90
14317;DHT22;7242;50.858;6.586;2023-09-19T11:07:59;21.80;99.90
14317;DHT22;7242;50.858;6.586;2023-09-19T11:11:40;21.70;99.90
14317;DHT22;7242;50.858;6.586;2023-09-19T11:14:41;21.70;99.90
14317;DHT22;7242;50.858;6.586;2023-09-19T11:17:43;21.60;99.90
14317;DHT22;7242;50.858;6.586;2023-09-19T11:21:38;21.40;99.90
14317;DHT22;7242;50.858;6.586;2023-09-19T11:24:39;21.20;99.90
14317;DHT22;7242;50.858;6.586;2023-09-19T11:31:44;21.20;99.90
14317;DHT22;7242;50.858;6.586;2023-09-19T11:34:46;21.20;99.90
14317;DHT22;7242;50.858;6.586;2023-09-19T11:47:26;21.20;99.90
14317;DHT22;7242;50.858;6.586;2023-09-19T11:50:28;21.20;99.90
14317;DHT22;7242;50.858;6.586;2023-09-19T11:53:31;21.10;99.90
14317;DHT22;7242;50.858;6.586;2023-09-19T11:56:39;21.00;99.90
14317;DHT22;7242;50.858;6.586;2023-09-19T11:59:42;21.00;99.90
14317;DHT22;7242;50.858;6.586;2023-09-19T12:02:47;21.10;99.90
14317;DHT22;7242;50.858;6.586;2023-09-19T12:05:51;21.30;99.90
14317;DHT22;7242;50.858;6.586;2023-09-19T12:08:52;21.10;99.90
14317;DHT22;7242;50.858;6.586;2023-09-19T12:12:00;21.20;99.90
14317;DHT22;7242;50.858;6.586;2023-09-19T12:15:01;21.20;99.90
14317;DHT22;7242;50.858;6.586;2023-09-19T12:18:04;21.20;99.90
14317;DHT22;7242;50.858;6.586;2023-09-19T12:21:04;21.30;99.90
14317;DHT22;7242;50.858;6.586;2023-09-19T12:24:12;21.30;99.90
14317;DHT22;7242;50.858;6.586;2023-09-19T12:27:16;21.30;99.90
14317;DHT22;7242;50.858;6.586;2023-09-19T12:30:17;21.30;99.90
14317;DHT22;7242;50.858;6.586;2023-09-19T12:33:19;21.30;99.90
14317;DHT22;7242;50.858;6.586;2023-09-19T12:36:22;21.40;99.90
14317;DHT22;7242;50.858;6.586;2023-09-19T12:39:29;21.40;99.90
14317;DHT22;7242;50.858;6.586;2023-09-19T12:42:30;21.40;99.90
14317;DHT22;7242;50.858;6.586;2023-09-19T12:45:33;21.50;99.90
14317;DHT22;7242;50.858;6.586;2023-09-19T12:48:35;21.50;99.90
14317;DHT22;7242;50.858;6.586;2023-09-19T12:51:38;21.50;99.90
14317;DHT22;7242;50.858;6.586;2023-09-19T12:54:39;21.40;99.90
14317;DHT22;7242;50.858;6.586;2023-09-19T12:57:40;21.40;99.90
14317;DHT22;7242;50.858;6.586;2023-09-19T13:00:42;21.40;99.90
14317;DHT22;7242;50.858;6.586;2023-09-19T13:03:45;21.50;99.90
14317;DHT22;7242;50.858;6.586;2023-09-19T13:06:47;21.50;99.90
14317;DHT22;7242;50.858;6.586;2023-09-19T13:10:05;21.50;99.90
14317;DHT22;7242;50.858;6.586;2023-09-19T13:13:23;21.50;99.90
14317;DHT22;7242;50.858;6.586;2023-09-19T13:16:28;21.50;99.90
14317;DHT22;7242;50.858;6.586;2023-09-19T13:22:43;21.50;99.90
14317;DHT22;7242;50.858;6.586;2023-09-19T13:25:48;21.50;99.90
14317;DHT22;7242;50.858;6.586;2023-09-19T13:28:49;21.40;99.90
14317;DHT22;7242;50.858;6.586;2023-09-19T13:31:51;21.40;99.90
14317;DHT22;7242;50.858;6.586;2023-09-19T13:34:55;21.50;99.90
14317;DHT22;7242;50.858;6.586;2023-09-19T13:37:55;21.50;99.90
14317;DHT22;7242;50.858;6.586;2023-09-19T13:40:56;21.40;99.90
14317;DHT22;7242;50.858;6.586;2023-09-19T13:43:57;21.40;99.90
14317;DHT22;7242;50.858;6.586;2023-09-19T13:46:57;21.40;99.90
14317;DHT22;7242;50.858;6.586;2023-09-19T13:49:59;21.40;99.90
14317;DHT22;7242;50.858;6.586;2023-09-19T13:53:00;21.40;99.90
14317;DHT22;7242;50.858;6.586;2023-09-19T13:56:01;21.40;99.90
14317;DHT22;7242;50.858;6.586;2023-09-19T13:59:01;21.50;99.90
14317;DHT22;7242;50.858;6.586;2023-09-19T14:02:02;21.50;99.90
14317;DHT22;7242;50.858;6.586;2023-09-19T14:05:06;21.50;99.90
14317;DHT22;7242;50.858;6.586;2023-09-19T14:08:07;21.50;99.90
14317;DHT22;7242;50.858;6.586;2023-09-19T14:11:08;21.50;99.90
14317;DHT22;7242;50.858;6.586;2023-09-19T14:14:09;21.40;99.90
14317;DHT22;7242;50.858;6.586;2023-09-19T14:17:10;21.40;99.90
14317;DHT22;7242;50.858;6.586;2023-09-19T14:20:11;21.50;99.90
14317;DHT22;7242;50.858;6.586;2023-09-19T14:23:12;21.50;99.90
14317;DHT22;7242;50.858;6.586;2023-09-19T14:26:12;21.60;99.90
14317;DHT22;7242;50.858;6.586;2023-09-19T14:29:13;21.70;99.90
14317;DHT22;7242;50.858;6.586;2023-09-19T14:32:14;21.70;99.90
14317;DHT22;7242;50.858;6.586;2023-09-19T14:35:15;21.80;99.90
14317;DHT22;7242;50.858;6.586;2023-09-19T14:41:17;21.40;99.90
14317;DHT22;7242;50.858;6.586;2023-09-19T14:44:18;21.80;99.90
14317;DHT22;7242;50.858;6.586;2023-09-19T14:47:19;21.50;99.90
14317;DHT22;7242;50.858;6.586;2023-09-19T14:50:19;21.50;99.90
14317;DHT22;7242;50.858;6.586;2023-09-19T14:53:21;21.90;99.90
14317;DHT22;7242;50.858;6.586;2023-09-19T14:56:21;21.60;99.90
14317;DHT22;7242;50.858;6.586;2023-09-19T14:59:24;21.10;99.90
14317;DHT22;7242;50.858;6.586;2023-09-19T15:08:27;21.30;99.90
14317;DHT22;7242;50.858;6.586;2023-09-19T15:11:28;22.10;99.90
14317;DHT22;7242;50.858;6.586;2023-09-19T15:14:29;21.40;99.90
14317;DHT22;7242;50.858;6.586;2023-09-19T15:17:32;21.60;99.90
14317;DHT22;7242;50.858;6.586;2023-09-19T15:20:33;21.40;99.90
14317;DHT22;7242;50.858;6.586;2023-09-19T15:23:34;21.00;99.90
14317;DHT22;7242;50.858;6.586;2023-09-19T15:26:36;21.30;99.90
14317;DHT22;7242;50.858;6.586;2023-09-19T15:32:40;21.00;99.90
14317;DHT22;7242;50.858;6.586;2023-09-19T15:35:41;21.10;99.90
14317;DHT22;7242;50.858;6.586;2023-09-19T15:39:02;21.00;99.90
14317;DHT22;7242;50.858;6.586;2023-09-19T15:45:05;21.00;99.90
14317;DHT22;7242;50.858;6.586;2023-09-19T15:48:06;21.10;99.90
14317;DHT22;7242;50.858;6.586;2023-09-19T15:54:15;21.40;99.90
14317;DHT22;7242;50.858;6.586;2023-09-19T16:03:19;21.20;99.90
14317;DHT22;7242;50.858;6.586;2023-09-19T16:06:26;21.30;99.90
14317;DHT22;7242;50.858;6.586;2023-09-19T16:09:27;21.30;99.90
14317;DHT22;7242;50.858;6.586;2023-09-19T16:21:37;20.80;99.90
14317;DHT22;7242;50.858;6.586;2023-09-19T16:24:37;20.90;99.90
14317;DHT22;7242;50.858;6.586;2023-09-19T16:30:39;20.80;99.90
14317;DHT22;7242;50.858;6.586;2023-09-19T16:33:41;20.80;99.90
14317;DHT22;7242;50.858;6.586;2023-09-19T16:36:42;20.40;99.90
14317;DHT22;7242;50.858;6.586;2023-09-19T16:46:07;20.50;99.90
14317;DHT22;7242;50.858;6.586;2023-09-19T16:52:12;20.30;99.90
14317;DHT22;7242;50.858;6.586;2023-09-19T16:55:13;20.50;99.90
14317;DHT22;7242;50.858;6.586;2023-09-19T16:58:16;20.10;99.90
14317;DHT22;7242;50.858;6.586;2023-09-19T17:01:17;20.00;99.90
14317;DHT22;7242;50.858;6.586;2023-09-19T17:07:21;19.90;99.90
14317;DHT22;7242;50.858;6.586;2023-09-19T17:13:22;19.90;99.90
14317;DHT22;7242;50.858;6.586;2023-09-19T17:22:27;19.60;99.90
14317;DHT22;7242;50.858;6.586;2023-09-19T17:25:27;19.90;99.90
14317;DHT22;7242;50.858;6.586;2023-09-19T17:28:34;19.60;99.90
14317;DHT22;7242;50.858;6.586;2023-09-19T17:31:35;19.50;99.90
14317;DHT22;7242;50.858;6.586;2023-09-19T17:37:39;19.10;99.90
14317;DHT22;7242;50.858;6.586;2023-09-19T17:43:45;19.10;99.90
14317;DHT22;7242;50.858;6.586;2023-09-19T17:55:51;18.90;99.90
14317;DHT22;7242;50.858;6.586;2023-09-19T18:11:04;18.60;99.90
14317;DHT22;7242;50.858;6.586;2023-09-19T18:14:14;18.90;99.90
14317;DHT22;7242;50.858;6.586;2023-09-19T18:23:19;18.60;99.90
14317;DHT22;7242;50.858;6.586;2023-09-19T18:29:22;18.60;99.90
14317;DHT22;7242;50.858;6.586;2023-09-19T18:35:27;18.60;99.90
14317;DHT22;7242;50.858;6.586;2023-09-19T18:41:32;18.50;99.90
14317;DHT22;7242;50.858;6.586;2023-09-19T18:44:37;18.70;99.90
14317;DHT22;7242;50.858;6.586;2023-09-19T18:47:38;18.40;99.90
14317;DHT22;7242;50.858;6.586;2023-09-19T18:53:42;18.60;99.90
14317;DHT22;7242;50.858;6.586;2023-09-19T18:56:42;19.10;99.90
14317;DHT22;7242;50.858;6.586;2023-09-19T18:59:44;18.80;99.90
14317;DHT22;7242;50.858;6.586;2023-09-19T19:08:48;18.60;99.90
14317;DHT22;7242;50.858;6.586;2023-09-19T19:14:50;18.50;99.90
14317;DHT22;7242;50.858;6.586;2023-09-19T19:21:03;18.90;99.90
14317;DHT22;7242;50.858;6.586;2023-09-19T19:24:05;18.80;99.90
14317;DHT22;7242;50.858;6.586;2023-09-19T19:27:05;18.70;99.90
14317;DHT22;7242;50.858;6.586;2023-09-19T19:30:07;18.90;99.90
14317;DHT22;7242;50.858;6.586;2023-09-19T19:39:12;18.30;99.90
14317;DHT22;7242;50.858;6.586;2023-09-19T19:42:13;18.80;99.90
14317;DHT22;7242;50.858;6.586;2023-09-19T19:48:15;18.80;99.90
14317;DHT22;7242;50.858;6.586;2023-09-19T20:00:20;18.80;99.90
14317;DHT22;7242;50.858;6.586;2023-09-19T20:15:30;19.00;99.90
14317;DHT22;7242;50.858;6.586;2023-09-19T20:21:36;18.90;99.90
14317;DHT22;7242;50.858;6.586;2023-09-19T20:27:42;18.80;99.90
14317;DHT22;7242;50.858;6.586;2023-09-19T20:30:43;18.90;99.90
14317;DHT22;7242;50.858;6.586;2023-09-19T20:39:46;18.90;99.90
14317;DHT22;7242;50.858;6.586;2023-09-19T20:45:49;18.90;99.90
14317;DHT22;7242;50.858;6.586;2023-09-19T20:48:53;19.10;99.90
14317;DHT22;7242;50.858;6.586;2023-09-19T20:51:53;18.90;99.90
14317;DHT22;7242;50.858;6.586;2023-09-19T20:57:55;18.80;99.90
14317;DHT22;7242;50.858;6.586;2023-09-19T21:01:00;18.90;99.90
14317;DHT22;7242;50.858;6.586;2023-09-19T21:04:01;18.90;99.90
14317;DHT22;7242;50.858;6.586;2023-09-19T21:07:03;18.80;99.90
14317;DHT22;7242;50.858;6.586;2023-09-19T21:10:06;18.60;99.90
14317;DHT22;7242;50.858;6.586;2023-09-19T21:16:11;19.10;99.90
14317;DHT22;7242;50.858;6.586;2023-09-19T21:19:11;18.90;99.90
14317;DHT22;7242;50.858;6.586;2023-09-19T21:22:12;18.90;99.90
14317;DHT22;7242;50.858;6.586;2023-09-19T21:28:14;19.10;99.90
14317;DHT22;7242;50.858;6.586;2023-09-19T21:34:15;19.00;99.90
14317;DHT22;7242;50.858;6.586;2023-09-19T21:37:16;18.90;99.90
14317;DHT22;7242;50.858;6.586;2023-09-19T21:43:18;18.70;99.90
14317;DHT22;7242;50.858;6.586;2023-09-19T21:46:20;18.70;99.90
14317;DHT22;7242;50.858;6.586;2023-09-19T21:49:20;19.00;99.90
14317;DHT22;7242;50.858;6.586;2023-09-19T21:55:29;18.70;99.90
14317;DHT22;7242;50.858;6.586;2023-09-19T21:58:31;18.70;99.90
14317;DHT22;7242;50.858;6.586;2023-09-19T22:04:35;18.80;99.90
14317;DHT22;7242;50.858;6.586;2023-09-19T22:10:44;18.70;99.90
14317;DHT22;7242;50.858;6.586;2023-09-19T22:13:46;18.60;99.90
14317;DHT22;7242;50.858;6.586;2023-09-19T22:16:47;18.60;99.90
14317;DHT22;7242;50.858;6.586;2023-09-19T22:22:54;18.00;99.90
14317;DHT22;7242;50.858;6.586;2023-09-19T22:26:00;18.20;99.90
14317;DHT22;7242;50.858;6.586;2023-09-19T22:29:03;18.20;99.90
14317;DHT22;7242;50.858;6.586;2023-09-19T22:35:07;18.10;99.90
14317;DHT22;7242;50.858;6.586;2023-09-19T22:44:11;18.00;99.90
14317;DHT22;7242;50.858;6.586;2023-09-19T22:47:14;18.20;99.90
14317;DHT22;7242;50.858;6.586;2023-09-19T22:53:16;18.20;99.90
14317;DHT22;7242;50.858;6.586;2023-09-19T22:56:19;18.10;99.90
14317;DHT22;7242;50.858;6.586;2023-09-19T22:59:22;18.10;99.90
14317;DHT22;7242;50.858;6.586;2023-09-19T23:02:23;18.10;99.90
14317;DHT22;7242;50.858;6.586;2023-09-19T23:05:34;18.10;99.90
14317;DHT22;7242;50.858;6.586;2023-09-19T23:08:37;18.00;99.90
14317;DHT22;7242;50.858;6.586;2023-09-19T23:11:40;17.90;99.90
14317;DHT22;7242;50.858;6.586;2023-09-19T23:14:43;18.00;99.90
14317;DHT22;7242;50.858;6.586;2023-09-19T23:17:45;18.10;99.90